createdAt,value
2023-03-03T00:02:33.312Z,1.80
2023-03-03T00:05:45.815Z,1.70
2023-03-03T00:08:23.860Z,1.70
2023-03-03T00:10:50.770Z,1.70
2023-03-03T00:13:49.778Z,1.70
2023-03-03T00:16:24.335Z,1.70
2023-03-03T00:22:38.515Z,1.70
2023-03-03T00:25:30.101Z,1.70
2023-03-03T00:28:02.578Z,1.80
2023-03-03T00:30:47.712Z,1.80
2023-03-03T00:33:35.656Z,1.80
2023-03-03T00:36:38.038Z,1.90
2023-03-03T00:39:23.683Z,2.00
2023-03-03T00:41:50.417Z,2.00
2023-03-03T00:44:35.954Z,2.10
2023-03-03T00:50:06.624Z,2.20
2023-03-03T00:52:35.114Z,2.20
2023-03-03T00:55:02.193Z,2.30
2023-03-03T00:57:28.962Z,2.30
2023-03-03T00:59:58.712Z,2.30
2023-03-03T01:02:25.396Z,2.30
2023-03-03T01:04:53.356Z,2.30
2023-03-03T01:07:20.004Z,2.30
2023-03-03T01:09:46.610Z,2.40
2023-03-03T01:12:13.272Z,2.40
2023-03-03T01:14:40.094Z,2.40
2023-03-03T01:17:06.859Z,2.40
2023-03-03T01:19:33.596Z,2.40
2023-03-03T01:22:00.223Z,2.50
2023-03-03T01:24:26.870Z,2.50
2023-03-03T01:26:53.462Z,2.50
2023-03-03T01:29:20.123Z,2.50
2023-03-03T01:31:46.715Z,2.50
2023-03-03T01:34:13.347Z,2.40
2023-03-03T01:36:39.946Z,2.40
2023-03-03T01:39:06.580Z,2.50
2023-03-03T01:41:33.692Z,2.50
2023-03-03T01:44:00.529Z,2.50
2023-03-03T01:46:30.134Z,2.50
2023-03-03T01:49:03.054Z,2.50
2023-03-03T01:51:32.410Z,2.50
2023-03-03T01:54:01.173Z,2.50
2023-03-03T01:56:28.256Z,2.50
2023-03-03T01:59:01.682Z,2.50
2023-03-03T02:01:29.067Z,2.50
2023-03-03T02:03:55.744Z,2.60
2023-03-03T02:06:27.598Z,2.60
2023-03-03T02:08:58.332Z,2.70
2023-03-03T02:11:25.935Z,2.70
2023-03-03T02:13:53.079Z,2.70
2023-03-03T02:16:19.816Z,2.70
2023-03-03T02:18:46.595Z,2.80
2023-03-03T02:21:23.755Z,2.80
2023-03-03T02:23:56.484Z,2.80
2023-03-03T02:26:24.523Z,2.80
2023-03-03T02:28:52.454Z,2.80
2023-03-03T02:31:21.238Z,2.80
2023-03-03T02:33:49.291Z,2.80
2023-03-03T02:36:17.763Z,2.80
2023-03-03T02:38:48.357Z,2.80
2023-03-03T02:41:23.933Z,2.80
2023-03-03T02:44:04.532Z,2.80
2023-03-03T02:46:36.446Z,2.80
2023-03-03T02:49:04.242Z,2.90
2023-03-03T02:51:30.928Z,2.90
2023-03-03T02:53:57.579Z,2.90
2023-03-03T02:56:24.252Z,3.00
2023-03-03T02:58:50.845Z,3.00
2023-03-03T03:01:17.721Z,3.00
2023-03-03T03:03:44.413Z,3.00
2023-03-03T03:06:11.063Z,3.00
2023-03-03T03:08:37.719Z,3.00
2023-03-03T03:11:05.949Z,3.00
2023-03-03T03:13:33.828Z,3.00
2023-03-03T03:16:00.975Z,3.00
2023-03-03T03:18:27.921Z,3.00
2023-03-03T03:20:54.589Z,3.00
2023-03-03T03:23:24.186Z,3.00
2023-03-03T03:25:50.876Z,3.00
2023-03-03T03:28:17.737Z,3.00
2023-03-03T03:30:45.702Z,3.00
2023-03-03T03:33:12.632Z,3.10
2023-03-03T03:35:47.109Z,3.10
2023-03-03T03:38:14.371Z,3.00
2023-03-03T03:43:22.791Z,3.00
2023-03-03T03:45:50.021Z,3.00
2023-03-03T03:48:17.632Z,3.10
2023-03-03T03:50:44.296Z,3.10
2023-03-03T03:53:11.045Z,3.10
2023-03-03T03:55:37.640Z,3.10
2023-03-03T03:58:07.291Z,3.10
2023-03-03T04:00:33.964Z,3.10
2023-03-03T04:03:00.694Z,3.10
2023-03-03T04:05:27.639Z,3.10
2023-03-03T04:07:54.231Z,3.10
2023-03-03T04:10:20.867Z,3.10
2023-03-03T04:12:47.531Z,3.10
2023-03-03T04:15:15.246Z,3.10
2023-03-03T04:17:42.313Z,3.10
2023-03-03T04:20:10.705Z,3.10
2023-03-03T04:22:37.468Z,3.20
2023-03-03T04:25:05.375Z,3.20
2023-03-03T04:27:32.651Z,3.20
2023-03-03T04:29:59.440Z,3.30
2023-03-03T04:32:26.432Z,3.30
2023-03-03T04:35:05.740Z,3.30
2023-03-03T04:37:34.169Z,3.20
2023-03-03T04:40:00.813Z,3.20
2023-03-03T04:42:28.279Z,3.10
2023-03-03T04:44:55.135Z,3.20
2023-03-03T04:47:21.874Z,3.20
2023-03-03T04:49:48.585Z,3.20
2023-03-03T04:52:15.295Z,3.20
2023-03-03T04:54:42.052Z,3.20
2023-03-03T04:57:09.421Z,3.20
2023-03-03T04:59:36.328Z,3.20
2023-03-03T05:02:04.595Z,3.20
2023-03-03T05:04:31.688Z,3.20
2023-03-03T05:06:58.477Z,3.30
2023-03-03T05:09:25.096Z,3.30
2023-03-03T05:11:52.037Z,3.30
2023-03-03T05:14:18.629Z,3.30
2023-03-03T05:16:45.304Z,3.30
2023-03-03T05:19:11.976Z,3.30
2023-03-03T05:21:42.215Z,3.30
2023-03-03T05:24:09.533Z,3.40
2023-03-03T05:26:36.148Z,3.40
2023-03-03T05:29:02.867Z,3.30
2023-03-03T05:31:29.549Z,3.30
2023-03-03T05:33:56.611Z,3.40
2023-03-03T05:36:23.223Z,3.40
2023-03-03T05:38:49.874Z,3.40
2023-03-03T05:41:16.555Z,3.40
2023-03-03T05:43:43.273Z,3.40
2023-03-03T05:46:10.011Z,3.40
2023-03-03T05:48:36.824Z,3.40
2023-03-03T05:51:28.539Z,3.40
2023-03-03T06:00:15.510Z,3.30
2023-03-03T06:08:57.122Z,3.40
2023-03-03T06:11:24.098Z,3.40
2023-03-03T06:13:51.106Z,3.40
2023-03-03T06:16:18.327Z,3.40
2023-03-03T06:18:45.045Z,3.40
2023-03-03T06:21:11.681Z,3.50
2023-03-03T06:23:38.457Z,3.50
2023-03-03T06:26:05.296Z,3.50
2023-03-03T06:28:31.898Z,3.50
2023-03-03T06:30:58.573Z,3.60
2023-03-03T06:33:28.506Z,3.60
2023-03-03T06:35:55.240Z,3.60
2023-03-03T06:38:21.861Z,3.70
2023-03-03T06:40:48.518Z,3.70
2023-03-03T06:43:15.222Z,3.70
2023-03-03T06:45:43.223Z,3.60
2023-03-03T06:51:39.840Z,3.70
2023-03-03T06:54:16.941Z,3.60
2023-03-03T06:56:46.213Z,3.70
2023-03-03T06:59:14.418Z,3.70
2023-03-03T07:01:41.471Z,3.80
2023-03-03T07:04:31.792Z,3.80
2023-03-03T07:06:59.438Z,3.80
2023-03-03T07:09:27.723Z,3.80
2023-03-03T07:12:14.576Z,3.80
2023-03-03T07:14:46.092Z,3.80
2023-03-03T07:17:20.108Z,3.80
2023-03-03T07:19:47.158Z,3.90
2023-03-03T07:22:13.812Z,3.90
2023-03-03T07:24:41.103Z,4.00
2023-03-03T07:27:19.650Z,4.00
2023-03-03T07:29:51.423Z,4.00
2023-03-03T07:32:21.250Z,4.00
2023-03-03T07:34:48.551Z,4.00
2023-03-03T07:37:34.852Z,4.00
2023-03-03T07:40:06.655Z,4.00
2023-03-03T07:42:39.889Z,4.10
2023-03-03T07:45:29.805Z,4.10
2023-03-03T07:48:10.493Z,4.10
2023-03-03T07:50:37.150Z,4.10
2023-03-03T07:53:06.454Z,4.20
2023-03-03T07:55:56.406Z,4.20
2023-03-03T07:58:43.753Z,4.10
2023-03-03T08:01:29.685Z,4.10
2023-03-03T08:07:17.503Z,4.10
2023-03-03T08:09:47.166Z,4.10
2023-03-03T08:15:52.936Z,4.20
2023-03-03T08:18:22.830Z,4.20
2023-03-03T08:20:53.029Z,4.20
2023-03-03T08:23:20.410Z,4.20
2023-03-03T08:25:47.808Z,4.20
2023-03-03T08:28:14.904Z,4.10
2023-03-03T08:30:42.093Z,4.10
2023-03-03T08:37:28.943Z,4.20
2023-03-03T08:39:55.553Z,4.10
2023-03-03T08:42:22.231Z,4.20
2023-03-03T08:44:48.825Z,4.20
2023-03-03T08:47:15.461Z,4.20
2023-03-03T08:49:42.112Z,4.20
2023-03-03T08:55:05.416Z,4.20
2023-03-03T08:57:32.854Z,4.20
2023-03-03T08:59:59.849Z,4.30
2023-03-03T09:02:26.525Z,4.30
2023-03-03T09:04:54.524Z,4.40
2023-03-03T09:07:21.286Z,4.40
2023-03-03T09:09:47.963Z,4.50
2023-03-03T09:12:18.942Z,4.60
2023-03-03T09:14:46.718Z,4.70
2023-03-03T09:17:25.227Z,4.70
2023-03-03T09:19:52.352Z,4.70
2023-03-03T09:22:23.762Z,4.70
2023-03-03T09:24:53.849Z,4.80
2023-03-03T09:27:30.021Z,4.80
2023-03-03T09:30:12.739Z,4.80
2023-03-03T09:32:49.165Z,4.90
2023-03-03T09:35:32.391Z,4.90
2023-03-03T09:38:25.473Z,4.80
2023-03-03T09:40:55.202Z,4.80
2023-03-03T09:43:41.511Z,4.90
2023-03-03T09:46:28.446Z,4.90
2023-03-03T09:48:55.184Z,5.00
2023-03-03T09:51:30.469Z,5.00
2023-03-03T09:54:09.403Z,5.10
2023-03-03T09:56:39.689Z,5.10
2023-03-03T09:59:09.512Z,5.10
2023-03-03T10:01:59.099Z,5.10
2023-03-03T10:04:25.817Z,5.10
2023-03-03T10:06:52.778Z,5.10
2023-03-03T10:09:22.549Z,5.10
2023-03-03T10:12:01.727Z,5.20
2023-03-03T10:14:46.331Z,5.30
2023-03-03T10:17:22.605Z,5.20
2023-03-03T10:20:08.560Z,5.20
2023-03-03T10:22:35.244Z,5.20
2023-03-03T10:25:01.869Z,5.20
2023-03-03T10:27:28.516Z,5.30
2023-03-03T10:30:01.259Z,5.30
2023-03-03T10:32:43.640Z,5.30
2023-03-03T10:35:35.531Z,5.40
2023-03-03T10:38:05.207Z,5.40
2023-03-03T10:40:39.866Z,5.40
2023-03-03T10:43:31.099Z,5.50
2023-03-03T10:46:05.446Z,5.60
2023-03-03T10:48:42.680Z,5.70
2023-03-03T10:51:12.467Z,5.70
2023-03-03T10:53:42.092Z,5.70
2023-03-03T10:56:27.314Z,5.80
2023-03-03T10:59:12.839Z,5.80
2023-03-03T11:01:47.107Z,5.80
2023-03-03T11:04:26.376Z,5.90
2023-03-03T11:06:53.013Z,5.90
2023-03-03T11:09:22.714Z,5.80
2023-03-03T11:11:58.589Z,5.70
2023-03-03T11:14:47.766Z,5.70
2023-03-03T11:17:14.402Z,5.70
2023-03-03T11:19:44.052Z,5.90
2023-03-03T11:22:22.983Z,5.90
2023-03-03T11:25:01.400Z,6.00
2023-03-03T11:27:37.349Z,6.10
2023-03-03T11:30:07.142Z,6.10
2023-03-03T11:32:40.189Z,6.30
2023-03-03T11:35:06.938Z,6.40
2023-03-03T11:37:48.688Z,6.60
2023-03-03T11:40:18.570Z,6.80
2023-03-03T11:43:10.630Z,6.90
2023-03-03T11:45:44.138Z,7.00
2023-03-03T11:48:11.139Z,7.10
2023-03-03T11:50:56.891Z,7.10
2023-03-03T11:53:31.943Z,7.10
2023-03-03T11:56:03.766Z,7.20
2023-03-03T11:58:45.238Z,7.30
2023-03-03T12:01:23.174Z,7.30
2023-03-03T12:04:19.427Z,7.40
2023-03-03T12:07:17.877Z,7.40
2023-03-03T12:09:55.296Z,7.30
2023-03-03T12:12:31.033Z,7.30
2023-03-03T12:14:57.767Z,7.40
2023-03-03T12:17:36.777Z,7.60
2023-03-03T12:20:13.535Z,7.70
2023-03-03T12:23:01.116Z,7.90
2023-03-03T12:25:36.171Z,8.00
2023-03-03T12:28:18.128Z,8.00
2023-03-03T12:31:01.304Z,7.90
2023-03-03T12:33:51.445Z,7.90
2023-03-03T12:36:36.514Z,7.80
2023-03-03T12:39:32.651Z,7.80
2023-03-03T12:42:03.864Z,8.00
2023-03-03T12:44:34.958Z,8.20
2023-03-03T12:47:25.088Z,8.40
2023-03-03T12:50:10.209Z,8.20
2023-03-03T12:53:02.686Z,8.10
2023-03-03T12:55:35.505Z,8.00
2023-03-03T12:58:14.513Z,8.00
2023-03-03T13:01:00.029Z,8.10
2023-03-03T13:03:32.150Z,8.10
2023-03-03T13:06:11.800Z,7.90
2023-03-03T13:08:38.641Z,7.80
2023-03-03T13:11:08.465Z,7.70
2023-03-03T13:13:40.728Z,7.70
2023-03-03T13:16:16.849Z,7.60
2023-03-03T13:18:46.850Z,7.50
2023-03-03T13:21:30.115Z,7.50
2023-03-03T13:24:05.944Z,7.50
2023-03-03T13:26:36.701Z,7.70
2023-03-03T13:29:20.566Z,7.90
2023-03-03T13:31:59.165Z,7.80
2023-03-03T13:34:37.404Z,8.00
2023-03-03T13:37:17.268Z,8.10
2023-03-03T13:39:52.834Z,8.30
2023-03-03T13:42:27.368Z,8.40
2023-03-03T13:44:55.193Z,8.40
2023-03-03T13:47:37.606Z,8.40
2023-03-03T13:50:22.651Z,8.50
2023-03-03T13:53:07.478Z,8.50
2023-03-03T13:55:36.130Z,8.60
2023-03-03T13:58:09.126Z,8.70
2023-03-03T14:00:54.245Z,8.60
2023-03-03T14:03:36.038Z,8.60
2023-03-03T14:06:08.546Z,8.80
2023-03-03T14:08:58.530Z,8.90
2023-03-03T14:11:44.168Z,9.00
2023-03-03T14:14:19.050Z,9.00
2023-03-03T14:16:55.010Z,8.70
2023-03-03T14:19:24.946Z,8.50
2023-03-03T14:22:04.078Z,8.50
2023-03-03T14:24:30.847Z,8.40
2023-03-03T14:26:58.681Z,8.30
2023-03-03T14:29:28.353Z,8.10
2023-03-03T14:31:56.069Z,7.90
2023-03-03T14:34:22.725Z,7.90
2023-03-03T14:36:50.314Z,7.80
2023-03-03T14:39:37.664Z,7.80
2023-03-03T14:42:27.562Z,7.80
2023-03-03T14:44:55.067Z,7.80
2023-03-03T14:47:26.746Z,7.80
2023-03-03T14:49:54.970Z,7.70
2023-03-03T14:52:23.815Z,7.70
2023-03-03T14:54:51.798Z,7.70
2023-03-03T14:57:20.004Z,7.60
2023-03-03T14:59:57.528Z,7.60
2023-03-03T15:02:27.938Z,7.60
2023-03-03T15:05:11.658Z,7.60
2023-03-03T15:07:40.023Z,7.60
2023-03-03T15:10:07.778Z,7.60
2023-03-03T15:12:38.723Z,7.50
2023-03-03T15:15:05.535Z,7.50
2023-03-03T15:17:36.558Z,7.40
2023-03-03T15:20:09.388Z,7.40
2023-03-03T15:22:46.379Z,7.40
2023-03-03T15:25:22.850Z,7.30
2023-03-03T15:27:52.238Z,7.20
2023-03-03T15:30:21.986Z,7.10
2023-03-03T15:33:06.950Z,7.00
2023-03-03T15:35:44.462Z,7.00
2023-03-03T15:38:23.594Z,6.90
2023-03-03T15:40:57.491Z,6.80
2023-03-03T15:43:32.128Z,6.80
2023-03-03T15:46:17.691Z,6.70
2023-03-03T15:49:03.599Z,6.70
2023-03-03T15:51:50.687Z,6.60
2023-03-03T15:54:56.489Z,6.60
2023-03-03T15:57:41.668Z,6.50
2023-03-03T16:00:11.547Z,6.50
2023-03-03T16:02:50.492Z,6.50
2023-03-03T16:05:47.450Z,6.50
2023-03-03T16:08:19.073Z,6.50
2023-03-03T16:10:48.807Z,6.60
2023-03-03T16:13:28.359Z,6.60
2023-03-03T16:16:01.188Z,6.50
2023-03-03T16:18:37.352Z,6.50
2023-03-03T16:21:06.955Z,6.50
2023-03-03T16:23:54.511Z,6.40
2023-03-03T16:26:39.934Z,6.40
2023-03-03T16:29:06.545Z,6.30
2023-03-03T16:31:38.058Z,6.30
2023-03-03T16:34:30.658Z,6.20
2023-03-03T16:37:23.158Z,6.10
2023-03-03T16:39:52.936Z,6.10
2023-03-03T16:42:23.590Z,6.00
2023-03-03T16:45:00.330Z,5.90
2023-03-03T16:47:33.135Z,5.80
2023-03-03T16:50:32.407Z,5.80
2023-03-03T16:53:17.827Z,5.80
2023-03-03T16:55:44.451Z,5.70
2023-03-03T16:58:31.686Z,5.60
2023-03-03T17:00:58.318Z,5.50
2023-03-03T17:03:39.881Z,5.40
2023-03-03T17:06:06.484Z,5.30
2023-03-03T17:08:48.845Z,5.20
2023-03-03T17:11:21.746Z,5.10
2023-03-03T17:13:56.425Z,5.00
2023-03-03T17:16:51.898Z,4.90
2023-03-03T17:19:34.692Z,4.80
2023-03-03T17:22:09.940Z,4.80
2023-03-03T17:24:42.523Z,4.70
2023-03-03T17:27:09.213Z,4.70
2023-03-03T17:29:38.949Z,4.60
2023-03-03T17:32:12.053Z,4.50
2023-03-03T17:34:44.952Z,4.50
2023-03-03T17:37:14.870Z,4.40
2023-03-03T17:39:44.484Z,4.40
2023-03-03T17:42:23.196Z,4.30
2023-03-03T17:45:13.630Z,4.20
2023-03-03T17:47:49.351Z,4.20
2023-03-03T17:50:34.797Z,4.10
2023-03-03T17:53:19.787Z,4.10
2023-03-03T17:56:01.000Z,4.00
2023-03-03T17:58:27.589Z,3.90
2023-03-03T18:01:03.448Z,3.90
2023-03-03T18:03:31.713Z,3.80
2023-03-03T18:06:05.022Z,3.80
2023-03-03T18:08:31.697Z,3.70
2023-03-03T18:11:15.746Z,3.60
2023-03-03T18:13:51.632Z,3.60
2023-03-03T18:16:24.329Z,3.60
2023-03-03T18:19:09.717Z,3.50
2023-03-03T18:21:39.358Z,3.40
2023-03-03T18:24:24.852Z,3.40
2023-03-03T18:26:56.019Z,3.40
2023-03-03T18:29:27.957Z,3.30
2023-03-03T18:31:58.115Z,3.30
2023-03-03T18:34:38.709Z,3.20
2023-03-03T18:37:11.053Z,3.20
2023-03-03T18:39:46.015Z,3.10
2023-03-03T18:42:15.727Z,3.00
2023-03-03T18:44:45.661Z,2.90
2023-03-03T18:47:12.465Z,2.80
2023-03-03T18:50:05.123Z,2.80
2023-03-03T18:52:32.960Z,2.80
2023-03-03T18:55:19.950Z,2.70
2023-03-03T18:58:01.452Z,2.70
2023-03-03T19:00:29.325Z,2.70
2023-03-03T19:02:57.098Z,2.70
2023-03-03T19:05:24.848Z,2.70
2023-03-03T19:08:17.943Z,2.60
2023-03-03T19:10:47.652Z,2.50
2023-03-03T19:13:32.869Z,2.50
2023-03-03T19:16:28.930Z,2.50
2023-03-03T19:18:55.529Z,2.40
2023-03-03T19:21:22.342Z,2.40
2023-03-03T19:24:05.864Z,2.40
2023-03-03T19:26:45.036Z,2.30
2023-03-03T19:29:30.766Z,2.30
2023-03-03T19:32:11.448Z,2.20
2023-03-03T19:34:57.360Z,2.10
2023-03-03T19:37:36.470Z,2.10
2023-03-03T19:40:21.989Z,2.10
2023-03-03T19:43:05.067Z,2.00
2023-03-03T19:45:49.363Z,2.00
2023-03-03T19:48:24.137Z,2.00
2023-03-03T19:50:50.817Z,2.00
2023-03-03T19:53:17.445Z,2.00
2023-03-03T19:55:50.297Z,2.00
2023-03-03T19:58:31.794Z,1.90
2023-03-03T20:01:13.737Z,1.90
2023-03-03T20:03:49.644Z,1.90
2023-03-03T20:06:29.149Z,1.90
2023-03-03T20:09:03.142Z,1.90
2023-03-03T20:11:37.523Z,1.80
2023-03-03T20:14:10.642Z,1.70
2023-03-03T20:16:42.073Z,1.70
2023-03-03T20:19:21.086Z,1.60
2023-03-03T20:21:54.184Z,1.70
2023-03-03T20:24:25.141Z,1.60
2023-03-03T20:27:07.647Z,1.60
2023-03-03T20:29:40.625Z,1.60
2023-03-03T20:32:19.413Z,1.60
2023-03-03T20:34:49.181Z,1.60
2023-03-03T20:37:25.050Z,1.60
2023-03-03T20:39:51.755Z,1.50
2023-03-03T20:42:18.547Z,1.50
2023-03-03T20:44:45.173Z,1.50
2023-03-03T20:47:11.891Z,1.50
2023-03-03T20:49:57.098Z,1.40
2023-03-03T20:52:33.599Z,1.40
2023-03-03T20:55:00.272Z,1.40
2023-03-03T20:57:36.891Z,1.30
2023-03-03T21:00:03.469Z,1.30
2023-03-03T21:02:33.119Z,1.30
2023-03-03T21:05:08.165Z,1.30
2023-03-03T21:07:36.538Z,1.30
2023-03-03T21:10:11.194Z,1.30
2023-03-03T21:12:53.068Z,1.30
2023-03-03T21:15:22.739Z,1.20
2023-03-03T21:17:49.861Z,1.10
2023-03-03T21:20:23.233Z,1.10
2023-03-03T21:22:50.250Z,1.10
2023-03-03T21:25:49.755Z,1.10
2023-03-03T21:28:18.366Z,1.10
2023-03-03T21:31:01.091Z,1.10
2023-03-03T21:33:38.632Z,1.20
2023-03-03T21:36:07.169Z,1.20
2023-03-03T21:38:34.925Z,1.00
2023-03-03T21:41:45.914Z,1.00
2023-03-03T21:44:32.257Z,1.00
2023-03-03T21:53:04.771Z,1.10
2023-03-03T21:55:32.622Z,1.00
2023-03-03T21:58:00.489Z,0.90
2023-03-03T22:00:28.382Z,0.80
2023-03-03T22:03:05.679Z,0.80
2023-03-03T22:08:25.363Z,0.80
2023-03-03T22:11:06.305Z,0.70
2023-03-03T22:15:10.387Z,0.70
2023-03-03T22:22:55.117Z,0.80
2023-03-03T22:25:21.823Z,0.80
2023-03-03T22:27:50.291Z,0.70
2023-03-03T22:30:17.509Z,0.70
2023-03-03T22:32:44.211Z,0.70
2023-03-03T22:35:11.925Z,0.60
2023-03-03T22:37:38.599Z,0.60
2023-03-03T22:40:05.494Z,0.60
2023-03-03T22:42:32.429Z,0.60
2023-03-03T22:44:59.078Z,0.60
2023-03-03T23:01:33.743Z,0.60
2023-03-03T23:04:00.391Z,0.50
2023-03-03T23:06:29.411Z,0.50
2023-03-03T23:08:56.871Z,0.40
2023-03-03T23:11:37.191Z,0.40
2023-03-03T23:14:09.756Z,0.50
2023-03-03T23:16:36.523Z,0.50
2023-03-03T23:19:08.297Z,0.40
2023-03-03T23:21:34.954Z,0.40
2023-03-03T23:38:01.570Z,0.40
2023-03-03T23:44:47.155Z,0.30
2023-03-03T23:47:13.886Z,0.30
2023-03-03T23:49:40.578Z,0.20
2023-03-03T23:52:09.770Z,0.20
2023-03-03T23:58:10.108Z,0.20
